sensor_id;sensor_type;location;lat;lon;timestamp;P1;durP1;ratioP1;P2;durP2;ratioP2
7969;SDS011;4030;52.362;9.206;2023-06-14T00:01:35;2.08;;;1.50;;
7969;SDS011;4030;52.362;9.206;2023-06-14T00:04:03;3.20;;;1.40;;
7969;SDS011;4030;52.362;9.206;2023-06-14T00:06:29;2.53;;;1.40;;
7969;SDS011;4030;52.362;9.206;2023-06-14T00:08:55;2.85;;;1.60;;
7969;SDS011;4030;52.362;9.206;2023-06-14T00:11:21;1.65;;;1.55;;
7969;SDS011;4030;52.362;9.206;2023-06-14T00:13:46;2.85;;;1.60;;
7969;SDS011;4030;52.362;9.206;2023-06-14T00:16:12;2.33;;;1.63;;
7969;SDS011;4030;52.362;9.206;2023-06-14T00:18:38;2.78;;;1.48;;
7969;SDS011;4030;52.362;9.206;2023-06-14T00:21:04;2.13;;;1.70;;
7969;SDS011;4030;52.362;9.206;2023-06-14T00:23:30;2.90;;;1.50;;
7969;SDS011;4030;52.362;9.206;2023-06-14T00:25:56;1.73;;;1.60;;
7969;SDS011;4030;52.362;9.206;2023-06-14T00:28:21;2.85;;;1.70;;
7969;SDS011;4030;52.362;9.206;2023-06-14T00:30:47;1.60;;;1.50;;
7969;SDS011;4030;52.362;9.206;2023-06-14T00:33:13;1.58;;;1.48;;
7969;SDS011;4030;52.362;9.206;2023-06-14T00:35:39;2.80;;;1.70;;
7969;SDS011;4030;52.362;9.206;2023-06-14T00:38:05;2.70;;;1.70;;
7969;SDS011;4030;52.362;9.206;2023-06-14T00:40:30;2.70;;;1.52;;
7969;SDS011;4030;52.362;9.206;2023-06-14T00:42:56;2.58;;;1.60;;
7969;SDS011;4030;52.362;9.206;2023-06-14T00:45:22;2.45;;;1.67;;
7969;SDS011;4030;52.362;9.206;2023-06-14T00:47:48;2.17;;;1.60;;
7969;SDS011;4030;52.362;9.206;2023-06-14T00:50:17;1.50;;;1.30;;
7969;SDS011;4030;52.362;9.206;2023-06-14T00:52:44;1.88;;;1.70;;
7969;SDS011;4030;52.362;9.206;2023-06-14T00:55:09;3.28;;;1.73;;
7969;SDS011;4030;52.362;9.206;2023-06-14T00:57:35;4.00;;;1.67;;
7969;SDS011;4030;52.362;9.206;2023-06-14T01:00:02;2.22;;;1.50;;
7969;SDS011;4030;52.362;9.206;2023-06-14T01:02:33;4.63;;;1.70;;
7969;SDS011;4030;52.362;9.206;2023-06-14T01:05:01;3.00;;;1.83;;
7969;SDS011;4030;52.362;9.206;2023-06-14T01:15:56;2.20;;;1.58;;
7969;SDS011;4030;52.362;9.206;2023-06-14T01:18:22;3.88;;;1.90;;
7969;SDS011;4030;52.362;9.206;2023-06-14T01:20:49;1.85;;;1.60;;
7969;SDS011;4030;52.362;9.206;2023-06-14T01:23:18;2.95;;;1.63;;
7969;SDS011;4030;52.362;9.206;2023-06-14T01:25:46;1.90;;;1.70;;
7969;SDS011;4030;52.362;9.206;2023-06-14T01:28:15;2.78;;;1.60;;
7969;SDS011;4030;52.362;9.206;2023-06-14T01:30:42;2.40;;;1.80;;
7969;SDS011;4030;52.362;9.206;2023-06-14T01:33:12;1.85;;;1.70;;
7969;SDS011;4030;52.362;9.206;2023-06-14T01:35:49;1.90;;;1.67;;
7969;SDS011;4030;52.362;9.206;2023-06-14T01:38:21;2.10;;;1.90;;
7969;SDS011;4030;52.362;9.206;2023-06-14T01:40:50;1.73;;;1.60;;
7969;SDS011;4030;52.362;9.206;2023-06-14T01:43:19;2.28;;;1.77;;
7969;SDS011;4030;52.362;9.206;2023-06-14T01:45:47;2.15;;;1.52;;
7969;SDS011;4030;52.362;9.206;2023-06-14T01:48:16;2.70;;;1.67;;
7969;SDS011;4030;52.362;9.206;2023-06-14T01:50:42;2.28;;;1.80;;
7969;SDS011;4030;52.362;9.206;2023-06-14T01:53:08;2.60;;;2.13;;
7969;SDS011;4030;52.362;9.206;2023-06-14T01:55:35;3.03;;;1.92;;
7969;SDS011;4030;52.362;9.206;2023-06-14T01:58:08;2.30;;;1.85;;
7969;SDS011;4030;52.362;9.206;2023-06-14T02:00:36;2.25;;;1.60;;
7969;SDS011;4030;52.362;9.206;2023-06-14T02:03:02;2.05;;;1.42;;
7969;SDS011;4030;52.362;9.206;2023-06-14T02:05:31;2.45;;;1.70;;
7969;SDS011;4030;52.362;9.206;2023-06-14T02:07:56;1.95;;;1.67;;
7969;SDS011;4030;52.362;9.206;2023-06-14T02:10:22;2.60;;;1.80;;
7969;SDS011;4030;52.362;9.206;2023-06-14T02:12:48;3.80;;;1.85;;
7969;SDS011;4030;52.362;9.206;2023-06-14T02:15:14;1.90;;;1.70;;
7969;SDS011;4030;52.362;9.206;2023-06-14T02:17:44;2.13;;;1.70;;
7969;SDS011;4030;52.362;9.206;2023-06-14T02:20:12;1.83;;;1.60;;
7969;SDS011;4030;52.362;9.206;2023-06-14T02:22:38;2.08;;;1.88;;
7969;SDS011;4030;52.362;9.206;2023-06-14T02:25:04;2.50;;;1.80;;
7969;SDS011;4030;52.362;9.206;2023-06-14T02:27:31;1.95;;;1.65;;
7969;SDS011;4030;52.362;9.206;2023-06-14T02:29:57;2.05;;;1.70;;
7969;SDS011;4030;52.362;9.206;2023-06-14T02:32:22;4.28;;;1.65;;
7969;SDS011;4030;52.362;9.206;2023-06-14T02:34:48;2.45;;;1.70;;
7969;SDS011;4030;52.362;9.206;2023-06-14T02:37:14;2.03;;;1.63;;
7969;SDS011;4030;52.362;9.206;2023-06-14T02:39:41;3.25;;;1.98;;
7969;SDS011;4030;52.362;9.206;2023-06-14T02:42:07;1.98;;;1.77;;
7969;SDS011;4030;52.362;9.206;2023-06-14T02:44:32;2.10;;;1.63;;
7969;SDS011;4030;52.362;9.206;2023-06-14T02:46:58;1.77;;;1.60;;
7969;SDS011;4030;52.362;9.206;2023-06-14T02:49:25;2.17;;;1.88;;
7969;SDS011;4030;52.362;9.206;2023-06-14T02:51:51;2.38;;;1.80;;
7969;SDS011;4030;52.362;9.206;2023-06-14T02:54:17;2.30;;;1.70;;
7969;SDS011;4030;52.362;9.206;2023-06-14T02:56:43;2.25;;;1.70;;
7969;SDS011;4030;52.362;9.206;2023-06-14T02:59:09;2.00;;;1.67;;
7969;SDS011;4030;52.362;9.206;2023-06-14T03:01:34;1.42;;;1.33;;
7969;SDS011;4030;52.362;9.206;2023-06-14T03:04:00;2.13;;;1.60;;
7969;SDS011;4030;52.362;9.206;2023-06-14T03:06:28;2.42;;;1.73;;
7969;SDS011;4030;52.362;9.206;2023-06-14T03:08:55;2.10;;;1.80;;
7969;SDS011;4030;52.362;9.206;2023-06-14T03:11:25;1.95;;;1.73;;
7969;SDS011;4030;52.362;9.206;2023-06-14T03:13:54;3.22;;;1.77;;
7969;SDS011;4030;52.362;9.206;2023-06-14T03:16:21;3.42;;;1.92;;
7969;SDS011;4030;52.362;9.206;2023-06-14T03:18:50;2.65;;;2.15;;
7969;SDS011;4030;52.362;9.206;2023-06-14T03:21:17;2.63;;;1.80;;
7969;SDS011;4030;52.362;9.206;2023-06-14T03:23:45;2.75;;;1.90;;
7969;SDS011;4030;52.362;9.206;2023-06-14T03:26:11;2.13;;;1.85;;
7969;SDS011;4030;52.362;9.206;2023-06-14T03:28:45;1.80;;;1.67;;
7969;SDS011;4030;52.362;9.206;2023-06-14T03:31:12;2.33;;;1.60;;
7969;SDS011;4030;52.362;9.206;2023-06-14T03:33:38;2.05;;;1.60;;
7969;SDS011;4030;52.362;9.206;2023-06-14T03:36:05;3.78;;;1.90;;
7969;SDS011;4030;52.362;9.206;2023-06-14T03:38:31;3.08;;;1.92;;
7969;SDS011;4030;52.362;9.206;2023-06-14T03:40:57;2.08;;;1.88;;
7969;SDS011;4030;52.362;9.206;2023-06-14T03:43:23;2.25;;;1.95;;
7969;SDS011;4030;52.362;9.206;2023-06-14T03:45:49;2.78;;;1.90;;
7969;SDS011;4030;52.362;9.206;2023-06-14T03:48:14;2.10;;;1.63;;
7969;SDS011;4030;52.362;9.206;2023-06-14T03:50:40;3.17;;;1.98;;
7969;SDS011;4030;52.362;9.206;2023-06-14T03:53:07;2.08;;;1.70;;
7969;SDS011;4030;52.362;9.206;2023-06-14T03:55:33;1.92;;;1.70;;
7969;SDS011;4030;52.362;9.206;2023-06-14T03:57:59;2.67;;;1.80;;
7969;SDS011;4030;52.362;9.206;2023-06-14T04:00:25;2.83;;;1.98;;
7969;SDS011;4030;52.362;9.206;2023-06-14T04:02:52;2.45;;;1.70;;
7969;SDS011;4030;52.362;9.206;2023-06-14T04:05:18;2.25;;;1.90;;
7969;SDS011;4030;52.362;9.206;2023-06-14T04:07:45;2.88;;;1.73;;
7969;SDS011;4030;52.362;9.206;2023-06-14T04:10:13;2.22;;;1.75;;
7969;SDS011;4030;52.362;9.206;2023-06-14T04:12:41;2.38;;;1.70;;
7969;SDS011;4030;52.362;9.206;2023-06-14T04:15:07;4.78;;;1.85;;
7969;SDS011;4030;52.362;9.206;2023-06-14T04:17:34;3.22;;;2.00;;
7969;SDS011;4030;52.362;9.206;2023-06-14T04:20:00;2.78;;;1.73;;
7969;SDS011;4030;52.362;9.206;2023-06-14T04:22:28;3.88;;;2.00;;
7969;SDS011;4030;52.362;9.206;2023-06-14T04:24:55;2.35;;;1.60;;
7969;SDS011;4030;52.362;9.206;2023-06-14T04:27:21;3.53;;;1.70;;
7969;SDS011;4030;52.362;9.206;2023-06-14T04:29:50;2.28;;;1.90;;
7969;SDS011;4030;52.362;9.206;2023-06-14T04:32:22;3.17;;;1.77;;
7969;SDS011;4030;52.362;9.206;2023-06-14T04:34:51;2.38;;;1.70;;
7969;SDS011;4030;52.362;9.206;2023-06-14T04:37:24;3.45;;;1.75;;
7969;SDS011;4030;52.362;9.206;2023-06-14T04:39:53;2.67;;;2.15;;
7969;SDS011;4030;52.362;9.206;2023-06-14T04:42:20;2.25;;;1.80;;
7969;SDS011;4030;52.362;9.206;2023-06-14T04:44:49;2.10;;;1.67;;
7969;SDS011;4030;52.362;9.206;2023-06-14T04:47:16;3.22;;;1.90;;
7969;SDS011;4030;52.362;9.206;2023-06-14T04:49:42;2.33;;;2.08;;
7969;SDS011;4030;52.362;9.206;2023-06-14T04:52:08;2.97;;;1.70;;
7969;SDS011;4030;52.362;9.206;2023-06-14T04:54:35;2.40;;;1.63;;
7969;SDS011;4030;52.362;9.206;2023-06-14T04:57:07;1.90;;;1.80;;
7969;SDS011;4030;52.362;9.206;2023-06-14T04:59:39;2.15;;;1.50;;
7969;SDS011;4030;52.362;9.206;2023-06-14T05:02:05;1.90;;;1.70;;
7969;SDS011;4030;52.362;9.206;2023-06-14T05:04:32;2.10;;;1.70;;
7969;SDS011;4030;52.362;9.206;2023-06-14T05:06:58;2.92;;;1.85;;
7969;SDS011;4030;52.362;9.206;2023-06-14T05:09:23;2.03;;;1.83;;
7969;SDS011;4030;52.362;9.206;2023-06-14T05:11:49;1.75;;;1.55;;
7969;SDS011;4030;52.362;9.206;2023-06-14T05:14:15;3.10;;;1.80;;
7969;SDS011;4030;52.362;9.206;2023-06-14T05:16:42;2.28;;;2.00;;
7969;SDS011;4030;52.362;9.206;2023-06-14T05:19:08;2.42;;;2.10;;
7969;SDS011;4030;52.362;9.206;2023-06-14T05:21:35;2.40;;;2.03;;
7969;SDS011;4030;52.362;9.206;2023-06-14T05:24:02;2.28;;;2.08;;
7969;SDS011;4030;52.362;9.206;2023-06-14T05:26:28;1.83;;;1.50;;
7969;SDS011;4030;52.362;9.206;2023-06-14T05:28:55;4.22;;;1.80;;
7969;SDS011;4030;52.362;9.206;2023-06-14T05:31:25;1.98;;;1.70;;
7969;SDS011;4030;52.362;9.206;2023-06-14T05:33:52;2.50;;;1.60;;
7969;SDS011;4030;52.362;9.206;2023-06-14T05:36:18;2.90;;;1.80;;
7969;SDS011;4030;52.362;9.206;2023-06-14T05:38:46;3.33;;;1.80;;
7969;SDS011;4030;52.362;9.206;2023-06-14T05:41:12;1.77;;;1.63;;
7969;SDS011;4030;52.362;9.206;2023-06-14T05:43:38;2.03;;;1.80;;
7969;SDS011;4030;52.362;9.206;2023-06-14T05:46:03;1.98;;;1.65;;
7969;SDS011;4030;52.362;9.206;2023-06-14T05:48:32;3.25;;;1.70;;
7969;SDS011;4030;52.362;9.206;2023-06-14T05:50:58;2.30;;;1.65;;
7969;SDS011;4030;52.362;9.206;2023-06-14T05:53:24;3.33;;;1.85;;
7969;SDS011;4030;52.362;9.206;2023-06-14T05:55:50;2.70;;;1.70;;
7969;SDS011;4030;52.362;9.206;2023-06-14T05:58:18;4.03;;;1.67;;
7969;SDS011;4030;52.362;9.206;2023-06-14T06:00:44;2.50;;;1.60;;
7969;SDS011;4030;52.362;9.206;2023-06-14T06:03:10;3.35;;;1.70;;
7969;SDS011;4030;52.362;9.206;2023-06-14T06:05:38;2.42;;;1.73;;
7969;SDS011;4030;52.362;9.206;2023-06-14T06:08:04;3.05;;;1.95;;
7969;SDS011;4030;52.362;9.206;2023-06-14T06:10:30;1.90;;;1.70;;
7969;SDS011;4030;52.362;9.206;2023-06-14T06:12:56;1.60;;;1.50;;
7969;SDS011;4030;52.362;9.206;2023-06-14T06:15:22;2.17;;;1.65;;
7969;SDS011;4030;52.362;9.206;2023-06-14T06:17:47;3.28;;;1.75;;
7969;SDS011;4030;52.362;9.206;2023-06-14T06:20:13;1.98;;;1.40;;
7969;SDS011;4030;52.362;9.206;2023-06-14T06:22:39;3.17;;;1.80;;
7969;SDS011;4030;52.362;9.206;2023-06-14T06:25:04;2.20;;;1.40;;
7969;SDS011;4030;52.362;9.206;2023-06-14T06:27:31;2.38;;;1.63;;
7969;SDS011;4030;52.362;9.206;2023-06-14T06:29:57;3.38;;;1.60;;
7969;SDS011;4030;52.362;9.206;2023-06-14T06:32:23;3.00;;;1.25;;
7969;SDS011;4030;52.362;9.206;2023-06-14T06:34:48;4.35;;;1.30;;
7969;SDS011;4030;52.362;9.206;2023-06-14T06:37:15;6.03;;;1.55;;
7969;SDS011;4030;52.362;9.206;2023-06-14T06:39:40;3.55;;;1.33;;
7969;SDS011;4030;52.362;9.206;2023-06-14T06:42:06;4.05;;;1.30;;
7969;SDS011;4030;52.362;9.206;2023-06-14T06:44:32;1.85;;;1.02;;
7969;SDS011;4030;52.362;9.206;2023-06-14T06:46:58;1.95;;;1.33;;
7969;SDS011;4030;52.362;9.206;2023-06-14T06:49:24;3.50;;;1.08;;
7969;SDS011;4030;52.362;9.206;2023-06-14T06:52:02;2.80;;;1.05;;
7969;SDS011;4030;52.362;9.206;2023-06-14T06:54:32;1.33;;;1.17;;
7969;SDS011;4030;52.362;9.206;2023-06-14T06:56:58;2.78;;;1.00;;
7969;SDS011;4030;52.362;9.206;2023-06-14T06:59:26;2.90;;;1.20;;
7969;SDS011;4030;52.362;9.206;2023-06-14T07:01:52;3.70;;;1.40;;
7969;SDS011;4030;52.362;9.206;2023-06-14T07:04:18;2.25;;;1.40;;
7969;SDS011;4030;52.362;9.206;2023-06-14T07:06:43;2.33;;;1.27;;
7969;SDS011;4030;52.362;9.206;2023-06-14T07:09:11;1.30;;;1.20;;
7969;SDS011;4030;52.362;9.206;2023-06-14T07:11:39;1.27;;;1.02;;
7969;SDS011;4030;52.362;9.206;2023-06-14T07:14:05;2.58;;;1.10;;
7969;SDS011;4030;52.362;9.206;2023-06-14T07:16:31;1.80;;;1.10;;
7969;SDS011;4030;52.362;9.206;2023-06-14T07:18:57;2.03;;;1.20;;
7969;SDS011;4030;52.362;9.206;2023-06-14T07:21:22;3.08;;;1.38;;
7969;SDS011;4030;52.362;9.206;2023-06-14T07:23:50;2.90;;;1.33;;
7969;SDS011;4030;52.362;9.206;2023-06-14T07:26:17;2.97;;;1.25;;
7969;SDS011;4030;52.362;9.206;2023-06-14T07:28:43;1.90;;;1.27;;
7969;SDS011;4030;52.362;9.206;2023-06-14T07:31:09;2.08;;;1.20;;
7969;SDS011;4030;52.362;9.206;2023-06-14T07:33:36;1.92;;;1.23;;
7969;SDS011;4030;52.362;9.206;2023-06-14T07:36:02;1.35;;;1.20;;
7969;SDS011;4030;52.362;9.206;2023-06-14T07:38:27;2.75;;;1.50;;
7969;SDS011;4030;52.362;9.206;2023-06-14T07:40:53;1.88;;;1.27;;
7969;SDS011;4030;52.362;9.206;2023-06-14T07:43:19;2.67;;;1.50;;
7969;SDS011;4030;52.362;9.206;2023-06-14T07:45:45;2.80;;;1.30;;
7969;SDS011;4030;52.362;9.206;2023-06-14T07:48:11;3.35;;;1.60;;
7969;SDS011;4030;52.362;9.206;2023-06-14T07:50:36;1.60;;;1.20;;
7969;SDS011;4030;52.362;9.206;2023-06-14T07:53:02;2.42;;;1.15;;
7969;SDS011;4030;52.362;9.206;2023-06-14T07:55:28;3.58;;;1.42;;
7969;SDS011;4030;52.362;9.206;2023-06-14T07:57:53;2.58;;;1.00;;
7969;SDS011;4030;52.362;9.206;2023-06-14T08:00:19;2.17;;;1.17;;
7969;SDS011;4030;52.362;9.206;2023-06-14T08:02:46;2.08;;;1.20;;
7969;SDS011;4030;52.362;9.206;2023-06-14T08:05:11;2.28;;;1.40;;
7969;SDS011;4030;52.362;9.206;2023-06-14T08:07:38;3.13;;;1.10;;
7969;SDS011;4030;52.362;9.206;2023-06-14T08:10:05;3.58;;;1.27;;
7969;SDS011;4030;52.362;9.206;2023-06-14T08:12:31;2.50;;;1.20;;
7969;SDS011;4030;52.362;9.206;2023-06-14T08:14:58;1.73;;;0.98;;
7969;SDS011;4030;52.362;9.206;2023-06-14T08:17:24;3.55;;;1.35;;
7969;SDS011;4030;52.362;9.206;2023-06-14T08:19:49;5.38;;;1.10;;
7969;SDS011;4030;52.362;9.206;2023-06-14T08:22:15;4.65;;;1.23;;
7969;SDS011;4030;52.362;9.206;2023-06-14T08:24:43;1.83;;;1.20;;
7969;SDS011;4030;52.362;9.206;2023-06-14T08:27:09;2.25;;;1.08;;
7969;SDS011;4030;52.362;9.206;2023-06-14T08:29:35;1.80;;;1.00;;
7969;SDS011;4030;52.362;9.206;2023-06-14T08:32:00;1.88;;;1.17;;
7969;SDS011;4030;52.362;9.206;2023-06-14T08:34:26;3.28;;;1.10;;
7969;SDS011;4030;52.362;9.206;2023-06-14T08:36:52;1.42;;;1.00;;
7969;SDS011;4030;52.362;9.206;2023-06-14T08:39:18;3.38;;;1.20;;
7969;SDS011;4030;52.362;9.206;2023-06-14T08:41:47;2.55;;;1.05;;
7969;SDS011;4030;52.362;9.206;2023-06-14T08:44:16;2.55;;;1.17;;
7969;SDS011;4030;52.362;9.206;2023-06-14T08:46:42;1.95;;;1.00;;
7969;SDS011;4030;52.362;9.206;2023-06-14T08:49:08;1.67;;;1.10;;
7969;SDS011;4030;52.362;9.206;2023-06-14T08:51:37;1.38;;;0.80;;
7969;SDS011;4030;52.362;9.206;2023-06-14T08:54:05;1.42;;;0.95;;
7969;SDS011;4030;52.362;9.206;2023-06-14T08:56:32;2.65;;;1.10;;
7969;SDS011;4030;52.362;9.206;2023-06-14T08:58:58;3.47;;;1.00;;
7969;SDS011;4030;52.362;9.206;2023-06-14T09:01:27;3.10;;;1.30;;
7969;SDS011;4030;52.362;9.206;2023-06-14T09:03:53;1.10;;;1.00;;
7969;SDS011;4030;52.362;9.206;2023-06-14T09:06:22;3.10;;;1.30;;
7969;SDS011;4030;52.362;9.206;2023-06-14T09:08:49;1.35;;;1.00;;
7969;SDS011;4030;52.362;9.206;2023-06-14T09:11:16;0.98;;;0.90;;
7969;SDS011;4030;52.362;9.206;2023-06-14T09:13:46;2.13;;;1.08;;
7969;SDS011;4030;52.362;9.206;2023-06-14T09:16:15;3.45;;;0.95;;
7969;SDS011;4030;52.362;9.206;2023-06-14T09:18:42;1.88;;;1.10;;
7969;SDS011;4030;52.362;9.206;2023-06-14T09:21:13;1.52;;;1.10;;
7969;SDS011;4030;52.362;9.206;2023-06-14T09:23:41;1.50;;;1.20;;
7969;SDS011;4030;52.362;9.206;2023-06-14T09:26:13;1.27;;;1.17;;
7969;SDS011;4030;52.362;9.206;2023-06-14T09:28:48;1.92;;;1.05;;
7969;SDS011;4030;52.362;9.206;2023-06-14T09:31:19;2.85;;;1.20;;
7969;SDS011;4030;52.362;9.206;2023-06-14T09:33:47;3.45;;;1.30;;
7969;SDS011;4030;52.362;9.206;2023-06-14T09:36:18;1.88;;;0.90;;
7969;SDS011;4030;52.362;9.206;2023-06-14T09:44:03;2.83;;;1.20;;
7969;SDS011;4030;52.362;9.206;2023-06-14T09:46:31;3.10;;;1.30;;
7969;SDS011;4030;52.362;9.206;2023-06-14T09:48:58;1.20;;;1.10;;
7969;SDS011;4030;52.362;9.206;2023-06-14T09:51:24;1.88;;;1.10;;
7969;SDS011;4030;52.362;9.206;2023-06-14T09:53:51;2.28;;;1.30;;
7969;SDS011;4030;52.362;9.206;2023-06-14T09:56:28;2.30;;;1.20;;
7969;SDS011;4030;52.362;9.206;2023-06-14T09:58:56;1.20;;;1.10;;
7969;SDS011;4030;52.362;9.206;2023-06-14T10:01:28;4.03;;;1.40;;
7969;SDS011;4030;52.362;9.206;2023-06-14T10:04:05;1.83;;;1.00;;
7969;SDS011;4030;52.362;9.206;2023-06-14T10:06:32;2.45;;;1.10;;
7969;SDS011;4030;52.362;9.206;2023-06-14T10:09:02;1.15;;;1.05;;
7969;SDS011;4030;52.362;9.206;2023-06-14T10:11:31;2.42;;;1.35;;
7969;SDS011;4030;52.362;9.206;2023-06-14T10:13:57;1.23;;;1.10;;
7969;SDS011;4030;52.362;9.206;2023-06-14T10:16:27;2.17;;;1.00;;
7969;SDS011;4030;52.362;9.206;2023-06-14T10:24:43;1.70;;;1.20;;
7969;SDS011;4030;52.362;9.206;2023-06-14T10:27:10;2.65;;;1.33;;
7969;SDS011;4030;52.362;9.206;2023-06-14T10:32:20;1.38;;;1.08;;
7969;SDS011;4030;52.362;9.206;2023-06-14T10:34:55;2.25;;;1.30;;
7969;SDS011;4030;52.362;9.206;2023-06-14T10:37:23;1.30;;;0.98;;
7969;SDS011;4030;52.362;9.206;2023-06-14T10:39:52;2.38;;;1.30;;
7969;SDS011;4030;52.362;9.206;2023-06-14T10:42:18;1.20;;;1.10;;
7969;SDS011;4030;52.362;9.206;2023-06-14T10:44:54;1.83;;;1.23;;
7969;SDS011;4030;52.362;9.206;2023-06-14T10:47:27;1.95;;;1.10;;
7969;SDS011;4030;52.362;9.206;2023-06-14T10:52:29;2.30;;;1.10;;
7969;SDS011;4030;52.362;9.206;2023-06-14T10:57:49;2.13;;;1.30;;
7969;SDS011;4030;52.362;9.206;2023-06-14T11:00:24;1.30;;;1.20;;
7969;SDS011;4030;52.362;9.206;2023-06-14T11:05:41;1.35;;;1.20;;
7969;SDS011;4030;52.362;9.206;2023-06-14T11:11:11;1.52;;;1.20;;
7969;SDS011;4030;52.362;9.206;2023-06-14T11:13:38;2.47;;;1.40;;
7969;SDS011;4030;52.362;9.206;2023-06-14T11:16:10;1.63;;;1.25;;
7969;SDS011;4030;52.362;9.206;2023-06-14T11:18:38;3.50;;;1.40;;
7969;SDS011;4030;52.362;9.206;2023-06-14T11:21:04;2.40;;;1.30;;
7969;SDS011;4030;52.362;9.206;2023-06-14T11:23:29;2.28;;;1.23;;
7969;SDS011;4030;52.362;9.206;2023-06-14T11:25:55;2.63;;;1.30;;
7969;SDS011;4030;52.362;9.206;2023-06-14T11:28:21;1.30;;;1.10;;
7969;SDS011;4030;52.362;9.206;2023-06-14T11:30:48;1.98;;;1.30;;
7969;SDS011;4030;52.362;9.206;2023-06-14T11:33:17;1.95;;;1.08;;
7969;SDS011;4030;52.362;9.206;2023-06-14T11:35:43;2.17;;;1.35;;
7969;SDS011;4030;52.362;9.206;2023-06-14T11:38:10;3.47;;;1.40;;
7969;SDS011;4030;52.362;9.206;2023-06-14T11:40:37;2.53;;;1.30;;
7969;SDS011;4030;52.362;9.206;2023-06-14T11:43:03;4.00;;;1.50;;
7969;SDS011;4030;52.362;9.206;2023-06-14T11:45:30;2.22;;;1.30;;
7969;SDS011;4030;52.362;9.206;2023-06-14T11:47:56;2.35;;;1.55;;
7969;SDS011;4030;52.362;9.206;2023-06-14T11:50:23;2.17;;;1.60;;
7969;SDS011;4030;52.362;9.206;2023-06-14T11:52:56;2.53;;;1.45;;
7969;SDS011;4030;52.362;9.206;2023-06-14T11:55:38;2.10;;;1.38;;
7969;SDS011;4030;52.362;9.206;2023-06-14T11:58:05;1.65;;;1.38;;
7969;SDS011;4030;52.362;9.206;2023-06-14T12:00:31;3.90;;;1.40;;
7969;SDS011;4030;52.362;9.206;2023-06-14T12:02:57;3.38;;;1.30;;
7969;SDS011;4030;52.362;9.206;2023-06-14T12:05:23;4.20;;;1.80;;
7969;SDS011;4030;52.362;9.206;2023-06-14T12:07:51;3.70;;;1.40;;
7969;SDS011;4030;52.362;9.206;2023-06-14T12:10:28;5.97;;;1.50;;
7969;SDS011;4030;52.362;9.206;2023-06-14T12:12:58;1.92;;;1.40;;
7969;SDS011;4030;52.362;9.206;2023-06-14T12:15:24;1.95;;;1.33;;
7969;SDS011;4030;52.362;9.206;2023-06-14T12:17:54;2.83;;;1.60;;
7969;SDS011;4030;52.362;9.206;2023-06-14T12:20:20;4.05;;;1.60;;
7969;SDS011;4030;52.362;9.206;2023-06-14T12:27:56;4.72;;;1.55;;
7969;SDS011;4030;52.362;9.206;2023-06-14T12:30:23;4.18;;;1.60;;
7969;SDS011;4030;52.362;9.206;2023-06-14T12:32:49;2.28;;;1.33;;
7969;SDS011;4030;52.362;9.206;2023-06-14T12:35:16;1.75;;;1.50;;
7969;SDS011;4030;52.362;9.206;2023-06-14T12:37:43;3.33;;;1.70;;
7969;SDS011;4030;52.362;9.206;2023-06-14T12:40:10;2.42;;;1.55;;
7969;SDS011;4030;52.362;9.206;2023-06-14T12:42:37;1.90;;;1.27;;
7969;SDS011;4030;52.362;9.206;2023-06-14T12:45:03;3.28;;;1.60;;
7969;SDS011;4030;52.362;9.206;2023-06-14T12:47:29;5.10;;;1.77;;
7969;SDS011;4030;52.362;9.206;2023-06-14T12:49:54;2.58;;;1.50;;
7969;SDS011;4030;52.362;9.206;2023-06-14T12:52:20;1.67;;;1.52;;
7969;SDS011;4030;52.362;9.206;2023-06-14T12:54:46;2.03;;;1.67;;
7969;SDS011;4030;52.362;9.206;2023-06-14T12:57:12;4.15;;;1.77;;
7969;SDS011;4030;52.362;9.206;2023-06-14T12:59:38;2.90;;;1.55;;
7969;SDS011;4030;52.362;9.206;2023-06-14T13:02:13;3.63;;;1.80;;
7969;SDS011;4030;52.362;9.206;2023-06-14T13:04:41;7.15;;;1.80;;
7969;SDS011;4030;52.362;9.206;2023-06-14T13:07:07;3.80;;;1.85;;
7969;SDS011;4030;52.362;9.206;2023-06-14T13:09:33;4.43;;;1.90;;
7969;SDS011;4030;52.362;9.206;2023-06-14T13:11:59;5.45;;;1.50;;
7969;SDS011;4030;52.362;9.206;2023-06-14T13:14:25;2.65;;;1.67;;
7969;SDS011;4030;52.362;9.206;2023-06-14T13:16:51;2.53;;;1.60;;
7969;SDS011;4030;52.362;9.206;2023-06-14T13:19:16;3.28;;;1.60;;
7969;SDS011;4030;52.362;9.206;2023-06-14T13:21:42;4.03;;;1.85;;
7969;SDS011;4030;52.362;9.206;2023-06-14T13:24:08;4.60;;;1.80;;
7969;SDS011;4030;52.362;9.206;2023-06-14T13:26:33;2.88;;;1.73;;
7969;SDS011;4030;52.362;9.206;2023-06-14T13:29:00;2.88;;;1.80;;
7969;SDS011;4030;52.362;9.206;2023-06-14T13:31:25;3.17;;;1.73;;
7969;SDS011;4030;52.362;9.206;2023-06-14T13:33:51;3.00;;;1.90;;
7969;SDS011;4030;52.362;9.206;2023-06-14T13:36:17;3.55;;;1.73;;
7969;SDS011;4030;52.362;9.206;2023-06-14T13:38:42;5.50;;;1.80;;
7969;SDS011;4030;52.362;9.206;2023-06-14T13:41:08;3.40;;;1.75;;
7969;SDS011;4030;52.362;9.206;2023-06-14T13:43:34;4.38;;;1.75;;
7969;SDS011;4030;52.362;9.206;2023-06-14T13:46:00;4.10;;;1.73;;
7969;SDS011;4030;52.362;9.206;2023-06-14T13:48:25;2.28;;;1.52;;
7969;SDS011;4030;52.362;9.206;2023-06-14T13:50:51;3.22;;;1.77;;
7969;SDS011;4030;52.362;9.206;2023-06-14T13:53:17;2.95;;;1.60;;
7969;SDS011;4030;52.362;9.206;2023-06-14T13:55:43;4.05;;;1.70;;
7969;SDS011;4030;52.362;9.206;2023-06-14T13:58:08;2.50;;;1.73;;
7969;SDS011;4030;52.362;9.206;2023-06-14T14:00:34;4.57;;;1.90;;
7969;SDS011;4030;52.362;9.206;2023-06-14T14:03:05;2.08;;;1.60;;
7969;SDS011;4030;52.362;9.206;2023-06-14T14:05:31;3.28;;;1.73;;
7969;SDS011;4030;52.362;9.206;2023-06-14T14:07:57;2.95;;;1.90;;
7969;SDS011;4030;52.362;9.206;2023-06-14T14:10:26;2.67;;;1.70;;
7969;SDS011;4030;52.362;9.206;2023-06-14T14:12:52;4.28;;;2.08;;
7969;SDS011;4030;52.362;9.206;2023-06-14T14:15:18;2.13;;;1.70;;
7969;SDS011;4030;52.362;9.206;2023-06-14T14:17:44;2.35;;;1.70;;
7969;SDS011;4030;52.362;9.206;2023-06-14T14:20:10;4.80;;;2.00;;
7969;SDS011;4030;52.362;9.206;2023-06-14T14:22:43;2.92;;;2.10;;
7969;SDS011;4030;52.362;9.206;2023-06-14T14:25:09;1.75;;;1.63;;
7969;SDS011;4030;52.362;9.206;2023-06-14T14:27:35;3.70;;;2.05;;
7969;SDS011;4030;52.362;9.206;2023-06-14T14:30:02;2.30;;;2.00;;
7969;SDS011;4030;52.362;9.206;2023-06-14T14:32:28;4.28;;;1.88;;
7969;SDS011;4030;52.362;9.206;2023-06-14T14:34:54;3.28;;;1.70;;
7969;SDS011;4030;52.362;9.206;2023-06-14T14:37:20;3.38;;;1.90;;
7969;SDS011;4030;52.362;9.206;2023-06-14T14:39:46;3.10;;;1.80;;
7969;SDS011;4030;52.362;9.206;2023-06-14T14:42:11;2.35;;;1.88;;
7969;SDS011;4030;52.362;9.206;2023-06-14T14:44:38;2.97;;;2.13;;
7969;SDS011;4030;52.362;9.206;2023-06-14T14:47:04;5.47;;;1.83;;
7969;SDS011;4030;52.362;9.206;2023-06-14T14:49:30;6.50;;;2.20;;
7969;SDS011;4030;52.362;9.206;2023-06-14T14:51:57;3.90;;;2.00;;
7969;SDS011;4030;52.362;9.206;2023-06-14T14:54:22;2.47;;;1.85;;
7969;SDS011;4030;52.362;9.206;2023-06-14T14:56:49;2.15;;;1.90;;
7969;SDS011;4030;52.362;9.206;2023-06-14T14:59:16;4.28;;;2.05;;
7969;SDS011;4030;52.362;9.206;2023-06-14T15:01:42;4.25;;;1.98;;
7969;SDS011;4030;52.362;9.206;2023-06-14T15:04:07;2.28;;;1.85;;
7969;SDS011;4030;52.362;9.206;2023-06-14T15:06:33;4.60;;;2.10;;
7969;SDS011;4030;52.362;9.206;2023-06-14T15:09:00;4.00;;;2.03;;
7969;SDS011;4030;52.362;9.206;2023-06-14T15:11:27;3.00;;;2.00;;
7969;SDS011;4030;52.362;9.206;2023-06-14T15:13:52;4.22;;;2.28;;
7969;SDS011;4030;52.362;9.206;2023-06-14T15:16:18;2.95;;;1.98;;
7969;SDS011;4030;52.362;9.206;2023-06-14T15:18:44;3.58;;;1.73;;
7969;SDS011;4030;52.362;9.206;2023-06-14T15:21:10;2.95;;;2.05;;
7969;SDS011;4030;52.362;9.206;2023-06-14T15:23:37;3.38;;;2.20;;
7969;SDS011;4030;52.362;9.206;2023-06-14T15:26:02;3.88;;;1.95;;
7969;SDS011;4030;52.362;9.206;2023-06-14T15:28:28;2.47;;;1.90;;
7969;SDS011;4030;52.362;9.206;2023-06-14T15:30:55;2.78;;;1.80;;
7969;SDS011;4030;52.362;9.206;2023-06-14T15:33:21;3.22;;;2.08;;
7969;SDS011;4030;52.362;9.206;2023-06-14T15:35:47;2.28;;;2.05;;
7969;SDS011;4030;52.362;9.206;2023-06-14T15:38:13;4.57;;;2.17;;
7969;SDS011;4030;52.362;9.206;2023-06-14T15:40:38;2.42;;;1.95;;
7969;SDS011;4030;52.362;9.206;2023-06-14T15:43:04;2.85;;;2.00;;
7969;SDS011;4030;52.362;9.206;2023-06-14T15:45:29;2.35;;;1.98;;
7969;SDS011;4030;52.362;9.206;2023-06-14T15:47:56;2.47;;;1.95;;
7969;SDS011;4030;52.362;9.206;2023-06-14T15:50:22;5.45;;;2.35;;
7969;SDS011;4030;52.362;9.206;2023-06-14T15:52:48;2.80;;;2.00;;